Monday, August 20, 2018, 12:14 AM CDT
Back to Local

KPWK, Chicago Executive Airport

Location: Wheeling, IL, United States Lat: 42.117
Local Time: 12:14 AM CDT ( 5:14 GMT) Lon: -87.9
Time Zone: US/Central Elev: 646 ft

Show me the last for .
Show Decoded

2018-08-19 23:52 METAR KPWK 200452Z AUTO 10005KT 10SM CLR 24/21 A2998 RMK AO2 SLP145 T02440206 $
                 =
2018-08-19 22:52 METAR KPWK 200352Z AUTO 09004KT 10SM CLR 24/21 A2997 RMK AO2 SLP145 T02440206 $
                 =
2018-08-19 21:52 METAR KPWK 200252Z 10004KT 10SM FEW070 24/20 A2998 RMK AO2 SLP147 T02440200
                 51008 $ =
2018-08-19 20:52 METAR KPWK 200152Z 08003KT 10SM SCT065 24/19 A2997 RMK AO2 SLP146 T02440194 $ =
2018-08-19 19:52 METAR KPWK 200052Z 08004KT 10SM BKN075 25/19 A2997 RMK AO2 SLP143 T02500194 $ =
2018-08-19 18:52 METAR KPWK 192352Z 07007KT 10SM CLR 25/19 A2996 RMK AO2 SLP140 T02500189 10289
                 20250 55005 $ =
2018-08-19 17:52 METAR KPWK 192252Z 08006KT 10SM CLR 26/19 A2995 RMK AO2 SLP139 T02610189 $ =
2018-08-19 16:52 METAR KPWK 192152Z 06009KT 10SM CLR 27/18 A2996 RMK AO2 SLP140 T02720183 $ =
2018-08-19 15:52 METAR KPWK 192052Z 06009KT 10SM CLR 28/18 A2997 RMK AO2 SLP145 T02830183 56013 $
                 =
2018-08-19 14:52 METAR KPWK 191952Z 07009KT 10SM CLR 28/18 A2999 RMK AO2 SLP149 T02830178 $ =
2018-08-19 13:52 METAR KPWK 191852Z 10007KT 070V130 10SM CLR 29/19 A2999 RMK AO2 SLP152 T02890189
                 $ =
2018-08-19 12:52 METAR KPWK 191752Z 12007KT 10SM FEW040 28/18 A3001 RMK AO2 SLP158 T02780183
                 10283 20200 58001 $ =
2018-08-19 11:52 METAR KPWK 191652Z 00000KT 10SM FEW030 28/19 A3002 RMK AO2 SLP161 T02830189 $ =
2018-08-19 10:52 METAR KPWK 191552Z 10004KT 10SM FEW032 BKN070 27/18 A3001 RMK AO2 SLP159
                 T02670183 =
2018-08-19 09:52 METAR KPWK 191452Z 08003KT 10SM FEW065 26/19 A3001 RMK AO2 SLP159 T02610194
                 53002 =
2018-08-19 08:52 METAR KPWK 191352Z 05005KT 10SM CLR 25/19 A3001 RMK AO2 SLP159 T02500194 =
2018-08-19 07:52 METAR KPWK 191252Z 01003KT 9SM CLR 22/19 A3000 RMK AO2 SLP155 T02220189 =
2018-08-19 06:52 METAR KPWK 191152Z 00000KT 8SM CLR 20/18 A3001 RMK AO2 SLP156 T02000178 10211
                 20194 51006 =
2018-08-19 05:52 METAR KPWK 191052Z AUTO 00000KT 7SM CLR 20/17 A3000 RMK AO2 SLP156 T02000172 =
2018-08-19 04:52 METAR KPWK 190952Z AUTO 00000KT 6SM BR CLR 19/17 A2999 RMK AO2 SLP152 T01940172
                 =
2018-08-19 03:52 METAR KPWK 190852Z AUTO 00000KT 9SM SCT019 20/18 A2999 RMK AO2 SLP150 T02000178
                 56006 =
2018-08-19 02:52 METAR KPWK 190752Z AUTO 00000KT 9SM CLR 21/18 A2999 RMK AO2 SLP152 T02060183 =
2018-08-19 01:52 METAR KPWK 190652Z AUTO 00000KT 10SM SCT080 21/18 A3000 RMK AO2 SLP154 T02110183
                 =
2018-08-19 00:52 METAR KPWK 190552Z AUTO 02003KT 10SM CLR 21/18 A3001 RMK AO2 SLP156 T02110183
                 10250 20206 402670206 56003 =

Support USWX by starting your Amazon purchase here.